Latest Coastal Weather Observations for Port Hedland

IDW60701

Issued at 2:52 pm WST Sunday 21 December 2014 (issued every 10 minutes, with the page automatically refreshed every 10 minutes)

About coastal observations | Map of coastal stations | Coastal observations for WA | Marine services | Other Formats
Station Details ID: 004032 Name: PORT HEDLAND AIRPORT Lat: -20.37 Lon: 118.63 Height: 6.4 m
Data from the previous 72 hours. | See also: Recent months at Port Hedland
Date/Time
WST
Temp

°C
Wind Pressure Rain
since 9am
mm
Weather Cloud Vis
km
Sea
Height
m
Swell
Dir
 
Speed
knots
Gust
knots
hPa Trend Height
m
Period
s
Dir
21/02:30pm 32.9 NW 15 20 1006.7 - 0.0 - - 10 - - - -
21/02:00pm 32.6 N 16 20 1007.1 - 0.0 - - 10 - - - -
21/01:30pm 32.1 N 15 20 1007.2 - 0.0 - - 10 - - - -
21/01:00pm 31.7 NNW 16 21 1007.4 - 0.0 - - 10 - - - -
21/12:30pm 33.1 NNW 15 20 1007.8 - 0.0 - - 10 - - - -
21/12:00pm 32.5 NNW 15 18 1008.0 R 0.0 Fine Mostly clear 30 - - - -
21/11:30am 33.0 NNW 13 17 1008.3 - 0.0 - - 10 - - - -
21/11:00am 33.0 NNW 12 17 1008.6 - 0.0 - - 10 - - - -
21/10:30am 32.0 NNW 12 15 1008.7 - 0.0 - - 10 - - - -
21/10:00am 32.1 NNW 11 19 1008.9 - 0.0 - - 10 - - - -
21/09:30am 32.5 NW 9 13 1008.8 - 0.0 - - 10 - - - -
21/09:00am 32.4 NW 9 13 1008.9 R 0.0 Fine Partly cloudy 30 - - - -
21/08:30am 31.6 NNW 9 14 1008.8 - 0.0 - - 10 - - - -
21/08:00am 30.2 NW 8 13 1008.8 - 0.0 - - 10 - - - -
21/07:30am 30.2 NW 6 9 1008.9 - 0.0 - - 10 - - - -
21/06:30am 27.0 NW 3 4 1008.7 - 0.0 - - 10 - - - -
21/06:00am 25.5 NW 4 4 1008.0 F 0.0 Fine Mostly cloudy 30 - - - -
21/05:30am 24.7 NW 5 5 1007.7 - 0.0 - - 10 - - - -
21/05:00am 24.7 WNW 4 5 1007.5 - 0.0 - - 10 - - - -
21/04:30am 24.8 NW 5 6 1007.1 - 0.0 - - 10 - - - -
21/04:00am 24.9 NW 5 6 1007.4 - 0.0 - - 10 - - - -
21/03:30am 25.4 NNW 4 5 1007.6 - 0.0 - - 10 - - - -
21/03:00am 25.2 W 1 5 1007.6 - 0.0 - - 10 - - - -
21/02:30am 25.7 WSW 2 4 1007.9 - 0.0 - - 10 - - - -
21/02:00am 25.9 WSW 5 6 1007.8 - 0.0 - - 10 - - - -
21/01:30am 26.3 WSW 6 8 1007.9 - 0.0 - - 10 - - - -
21/01:00am 26.5 WSW 9 11 1008.0 - 0.0 - - 10 - - - -
21/12:30am 26.8 WSW 9 12 1008.3 - 0.0 - - 10 - - - -
21/12:00am 27.2 W 11 14 1008.0 - 0.0 - - 10 - - - -
 
Date/Time
WST
Temp

°C
Wind Pressure Rain
since 9am
mm
Weather Cloud Vis
km
Sea
Height
m
Swell
Dir
 
Speed
knots
Gust
knots
hPa Trend Height
m
Period
s
Dir
20/11:30pm 27.3 W 10 13 1008.3 - 0.0 - - 10 - - - -
20/11:00pm 27.4 W 11 15 1008.4 - 0.0 - - 10 - - - -
20/10:30pm 27.5 WNW 9 13 1008.7 - 0.0 - - 10 - - - -
20/10:00pm 27.7 WNW 12 16 1008.7 - 0.0 - - 10 - - - -
20/09:30pm 27.8 WNW 12 15 1008.6 - 0.0 - - 10 - - - -
20/09:00pm 27.9 NW 10 14 1008.4 - 0.0 - - 10 - - - -
20/08:30pm 28.0 NW 11 15 1007.9 - 0.0 - - 10 - - - -
20/08:00pm 28.1 NW 13 17 1007.4 - 0.0 - - 10 - - - -
20/07:30pm 28.3 NW 14 17 1007.0 - 0.0 - - 10 - - - -
20/07:00pm 28.5 WNW 13 17 1006.8 - 0.0 - - 10 - - - -
20/06:30pm 28.9 NW 15 19 1006.1 - 0.0 - - 10 - - - -
20/06:00pm 29.5 NW 18 22 1005.7 - 0.0 - - 10 - - - -
20/05:30pm 30.6 NW 17 22 1005.8 - 0.0 - - 10 - - - -
20/05:00pm 31.2 NW 18 22 1005.9 - 0.0 - - 10 - - - -
20/04:30pm 32.5 NW 17 21 1006.0 - 0.0 - - 10 - - - -
20/04:00pm 33.0 NW 17 21 1006.3 - 0.0 - - 10 - - - -
20/03:30pm 32.5 NNW 17 20 1006.3 - 0.0 - - 10 - - - -
20/03:00pm 33.5 NW 15 19 1006.3 - 0.0 - - 10 - - - -
20/02:30pm 33.9 NNW 16 20 1006.8 - 0.0 - - 10 - - - -
20/02:00pm 33.5 NW 16 21 1007.1 - 0.0 - - 10 - - - -
20/01:30pm 33.8 NW 17 21 1007.5 - 0.0 - - 10 - - - -
20/01:00pm 34.0 NW 15 18 1008.1 - 0.0 - - 10 - - - -
20/12:30pm 35.0 NW 14 18 1008.4 - 0.0 - - 10 - - - -
20/12:00pm 35.0 NNW 14 19 1008.8 - 0.0 - - 10 - - - -
20/11:30am 34.1 NNW 15 19 1009.2 - 0.0 - - 10 - - - -
20/11:00am 33.9 NW 14 18 1009.6 - 0.0 - - 10 - - - -
20/10:30am 34.7 NNW 12 17 1009.6 - 0.0 - - 10 - - - -
20/10:00am 34.2 NW 10 13 1009.7 - 0.0 - - 10 - - - -
20/09:30am 33.3 NNW 9 14 1010.1 - 0.0 - - 10 - - - -
20/09:00am 33.4 NW 9 14 1010.1 - 0.0 - - 10 - - - -
20/08:30am 32.7 NW 9 12 1010.3 - 0.0 - - 10 - - - -
20/08:00am 31.0 NW 7 9 1010.4 - 0.0 - - 10 - - - -
20/07:30am 30.2 WNW 6 9 1010.3 - 0.0 - - 10 - - - -
20/07:00am 28.5 NW 5 7 1010.3 - 0.0 - - 10 - - - -
20/06:30am 26.8 NNW 4 6 1010.0 - 0.0 - - 10 - - - -
20/06:00am 25.3 CALM 0 0 1009.7 - 0.0 - - 10 - - - -
20/05:30am 24.6 CALM 0 0 1009.6 - 0.0 - - 10 - - - -
20/05:00am 24.7 WSW 3 4 1009.3 - 0.0 - - 10 - - - -
20/04:30am 24.7 WSW 3 4 1009.2 - 0.0 - - 10 - - - -
20/04:00am 24.7 WSW 4 4 1009.3 - 0.0 - - 10 - - - -
20/03:30am 25.2 WSW 4 5 1009.1 - 0.0 - - 10 - - - -
20/03:00am 25.7 WSW 5 7 1008.8 - 0.0 - - 10 - - - -
20/02:30am 26.1 SW 7 9 1009.1 - 0.0 - - 10 - - - -
20/02:00am 26.2 SW 6 8 1009.3 - 0.0 - - 10 - - - -
20/01:30am 26.2 WSW 6 7 1009.4 - 0.0 - - 10 - - - -
20/01:00am 26.2 WSW 7 9 1009.5 - 0.0 - - 10 - - - -
20/12:30am 26.2 WSW 7 9 1009.8 - 0.0 - - 10 - - - -
20/12:00am 26.4 WSW 7 8 1010.1 - 0.0 - - 10 - - - -
 
Date/Time
WST
Temp

°C
Wind Pressure Rain
since 9am
mm
Weather Cloud Vis
km
Sea
Height
m
Swell
Dir
 
Speed
knots
Gust
knots
hPa Trend Height
m
Period
s
Dir
19/11:30pm 26.7 WSW 8 9 1010.5 - 0.0 - - 10 - - - -
19/11:00pm 27.4 W 9 11 1010.6 - 0.0 - - 10 - - - -
19/10:30pm 27.6 W 9 11 1011.0 - 0.0 - - 10 - - - -
19/10:00pm 27.8 WNW 9 12 1011.2 - 0.0 - - 10 - - - -
19/09:30pm 27.9 WNW 9 12 1010.9 - 0.0 - - 10 - - - -
19/09:00pm 28.1 WNW 11 14 1010.5 - 0.0 - - 10 - - - -
19/08:30pm 28.2 WNW 13 17 1010.2 - 0.0 - - 10 - - - -
19/08:00pm 28.3 WNW 13 17 1010.0 - 0.0 - - 10 - - - -
19/07:30pm 28.5 WNW 13 16 1010.1 - 0.0 - - 10 - - - -
19/07:00pm 28.8 NW 12 15 1009.9 - 0.0 - - 10 - - - -
19/06:30pm 29.3 NNW 13 16 1009.4 - 0.0 - - 10 - - - -
19/06:00pm 30.0 NNW 13 16 1009.3 - 0.0 - - 10 - - - -
19/05:30pm 30.7 NNW 14 19 1009.3 - 0.0 - - 10 - - - -
19/05:00pm 31.4 NNW 14 18 1009.1 - 0.0 - - 10 - - - -
19/04:30pm 31.9 NNW 14 18 1008.7 - 0.0 - - 10 - - - -
19/04:00pm 32.7 N 14 19 1008.7 - 0.0 - - 10 - - - -
19/03:30pm 34.4 NNW 13 17 1008.6 - 0.0 - - 10 - - - -
19/03:00pm 33.5 NNW 15 18 - - 0.0 - - 10 - - - -
19/02:30pm 33.9 NNW 13 18 - - 0.0 - - 10 - - - -
19/02:00pm 33.6 NNW 13 18 - - 0.0 - - 10 - - - -
19/01:30pm 33.6 NNW 13 18 - - 0.0 - - 10 - - - -
19/01:00pm 33.1 NNW 14 19 - - 0.0 - - 10 - - - -
19/12:30pm 34.4 N 13 18 - - 0.0 - - 10 - - - -
19/12:00pm 33.5 NNW 11 16 - - 0.0 - - 10 - - - -
19/11:30am 32.4 N 11 16 - - 0.0 - - 10 - - - -
19/11:00am 32.4 NNW 11 15 - - 0.0 - - 10 - - - -
19/10:30am 31.9 NNW 11 16 - - 0.0 - - 10 - - - -
19/10:00am 31.9 N 12 14 - - 0.0 - - 10 - - - -
19/09:30am 31.2 N 11 15 - - 0.0 - - 10 - - - -
19/09:00am 31.6 NW 11 12 - - 0.0 - - 10 - - - -
19/08:30am 30.8 NNW 9 13 - - 0.0 - - 10 - - - -
19/08:00am 30.3 NNW 8 12 - - 0.0 - - 10 - - - -
19/07:30am 29.7 NW 10 12 - - 0.0 - - 10 - - - -
19/07:00am 29.1 NW 9 12 - - 0.0 - - 10 - - - -
19/06:30am 28.3 NW 7 9 - - 0.0 - - 10 - - - -
19/06:00am 25.9 NNW 3 6 - - 0.0 - - 10 - - - -
19/05:30am 24.5 NW 5 6 - - 0.0 - - 10 - - - -
19/05:00am 24.2 WNW 6 7 - - 0.0 - - 10 - - - -
19/04:30am 24.4 W 7 8 - - 0.0 - - 10 - - - -
19/04:00am 24.5 NW 7 8 - - 0.0 - - 10 - - - -
19/03:30am 24.6 NNW 6 6 - - 0.0 - - 10 - - - -
19/03:00am 24.8 NW 5 6 - - 0.0 - - 10 - - - -
19/02:30am 24.9 NW 5 5 - - 0.0 - - 10 - - - -
19/02:00am 25.4 NNW 4 5 - - 0.0 - - 10 - - - -
19/01:30am 25.6 NNW 6 6 - - 0.0 - - 10 - - - -
19/01:00am 25.3 WNW 5 6 - - 0.0 - - 10 - - - -
19/12:30am 25.7 WNW 6 7 - - 0.0 - - 10 - - - -
19/12:00am 26.2 NW 6 8 - - 0.0 - - 10 - - - -
 
Date/Time
WST
Temp

°C
Wind Pressure Rain
since 9am
mm
Weather Cloud Vis
km
Sea
Height
m
Swell
Dir
 
Speed
knots
Gust
knots
hPa Trend Height
m
Period
s
Dir
18/11:30pm 26.5 WNW 7 8 - - 0.0 - - 10 - - - -
18/11:00pm 26.6 NW 7 9 - - 0.0 - - 10 - - - -
18/10:30pm 26.9 WNW 8 11 - - 0.0 - - 10 - - - -
18/10:00pm 27.1 NW 10 13 - - 0.0 - - 10 - - - -
18/09:30pm 27.2 NW 12 15 - - 0.0 - - 10 - - - -
18/09:00pm 27.2 NW 12 14 - - 0.0 - Cloudy 10 - - - -
18/08:30pm 27.3 NW 11 14 - - 0.0 - Partly cloudy 10 - - - -
18/08:00pm 27.5 NW 13 17 - - 0.0 - Partly cloudy 10 - - - -
18/07:30pm 27.6 NW 14 18 - - 0.0 - Partly cloudy 10 - - - -
18/07:00pm 27.9 NNW 14 17 - - 0.0 - Partly cloudy 10 - - - -
18/06:30pm 28.1 NNW 14 18 - - 0.0 - - 10 - - - -
18/06:00pm 28.5 NNW 17 21 - - 0.0 - - 10 - - - -
18/05:30pm 29.7 NNW 17 22 - - 0.0 - - 10 - - - -
18/05:00pm 29.7 N 18 22 - - 0.0 - - 10 - - - -
18/04:30pm 30.4 N 17 22 - - 0.0 - - 10 - - - -
18/04:00pm 30.5 NNW 17 22 - - 0.0 - - 10 - - - -
18/03:30pm 30.5 N 17 21 - - 0.0 - - 10 - - - -
18/03:00pm 32.0 NNW 16 23 1006.0 R 0.0 Fine Clear 30 - - - -

Other Formats:

Comma delimited format used in spreadsheet applications
http://www.bom.gov.au/fwo/IDW60701/IDW60701.94312.axf

JavaScript Object Notation format (JSON) in row-major order
http://www.bom.gov.au/fwo/IDW60701/IDW60701.94312.json